VABP/BHO METAR and TAF weather

Enter ICAO airport designator
Station Type Date Time Source
VABP METAR 2019/05/25 15:00 UTC NOAA

VABP 251500Z 01004KT 6000 FEW025 36/18 Q1006 NOSIG


Station Type Date Time Source
VABP Decoded METAR 2019/05/25 15:00 UTC NOAA

Bhopal / Bairagarh, India (VABP) 23-17N 077-21E 523M
May 25, 2019 - 11:00 AM EDT / 2019.05.25 1500 UTC
Wind: from the N (010 degrees) at 5 MPH (4 KT):0
Visibility: 3 mile(s):0
Sky conditions: mostly clear
Temperature: 96 F (36 C)
Heat index: 97.7 F (36.5 C):1
Dew Point: 64 F (18 C)
Relative Humidity: 34%
Pressure (altimeter): 29.71 in. Hg (1006 hPa)
ob: VABP 251500Z 01004KT 6000 FEW025 36/18 Q1006 NOSIG
cycle: 15

Station Type Date Time Source
VABP TAF 2019/04/18 06:00 UTC NOAA

TAF VABP 180500Z 1806/1815 32008KT 6000 FEW030

Example: see airport list